createdAt,value
2023-03-19T00:10:04.298Z,4.3
2023-03-19T00:24:04.366Z,4.6
2023-03-19T00:38:04.369Z,4.1
2023-03-19T00:52:04.382Z,3.5
2023-03-19T01:06:04.447Z,3.4
2023-03-19T01:20:04.405Z,3.0
2023-03-19T01:34:04.433Z,3.2
2023-03-19T01:48:04.435Z,2.9
2023-03-19T02:02:04.482Z,3.1
2023-03-19T02:16:04.556Z,2.9
2023-03-19T02:30:04.475Z,3.1
2023-03-19T02:44:04.530Z,3.7
2023-03-19T02:58:04.539Z,3.7
2023-03-19T03:12:04.574Z,4.0
2023-03-19T03:26:04.563Z,4.5
2023-03-19T03:40:04.583Z,4.5
2023-03-19T03:54:04.746Z,4.4
2023-03-19T04:08:04.754Z,4.7
2023-03-19T04:22:04.756Z,4.7
2023-03-19T04:36:04.660Z,5.2
2023-03-19T04:50:04.681Z,5.5
2023-03-19T05:04:04.719Z,5.4
2023-03-19T05:18:04.815Z,5.7
2023-03-19T05:33:04.913Z,6.2
2023-03-19T05:48:04.848Z,5.7
2023-03-19T06:03:04.756Z,5.9
2023-03-19T06:18:04.791Z,6.1
2023-03-19T06:33:04.945Z,6.6
2023-03-19T06:48:04.927Z,7.1
2023-03-19T07:03:04.821Z,7.5
2023-03-19T07:18:04.836Z,8.0
2023-03-19T07:33:04.978Z,8.6
2023-03-19T07:48:04.877Z,8.7
2023-03-19T08:03:04.917Z,9.6
2023-03-19T08:18:05.015Z,9.7
2023-03-19T08:33:04.955Z,9.7
2023-03-19T08:48:04.953Z,10.0
2023-03-19T09:04:04.953Z,11.2
2023-03-19T09:19:04.963Z,10.8
2023-03-19T09:34:04.975Z,11.4
2023-03-19T09:49:04.996Z,11.8
2023-03-19T10:04:05.019Z,12.0
2023-03-19T10:19:05.007Z,12.1
2023-03-19T10:34:05.012Z,12.8
2023-03-19T10:49:05.040Z,13.4
2023-03-19T11:04:05.073Z,14.3
2023-03-19T11:19:05.073Z,14.9
2023-03-19T11:34:05.116Z,15.8
2023-03-19T11:49:19.312Z,16.8
2023-03-19T12:04:11.811Z,16.4
2023-03-19T12:19:05.196Z,16.8
2023-03-19T12:34:05.214Z,17.4
2023-03-19T12:49:05.200Z,17.3
2023-03-19T13:04:05.249Z,17.5
2023-03-19T13:19:05.284Z,17.0
2023-03-19T13:34:05.284Z,17.8
2023-03-19T13:49:05.286Z,18.2
2023-03-19T14:04:05.321Z,18.4
2023-03-19T14:19:05.300Z,17.6
2023-03-19T14:34:05.421Z,16.7
2023-03-19T14:49:05.325Z,16.5
2023-03-19T15:04:05.442Z,15.8
2023-03-19T15:19:05.453Z,15.0
2023-03-19T15:34:05.530Z,14.9
2023-03-19T15:49:05.473Z,14.5
2023-03-19T16:04:05.489Z,14.1
2023-03-19T16:19:05.532Z,13.9
2023-03-19T16:34:05.532Z,13.5
2023-03-19T16:49:05.435Z,13.4
2023-03-19T17:04:05.576Z,13.0
2023-03-19T17:19:07.293Z,12.4
2023-03-19T17:34:05.482Z,12.0
2023-03-19T17:49:05.505Z,11.6
2023-03-19T18:04:05.506Z,11.4
2023-03-19T18:18:05.501Z,11.3
2023-03-19T18:32:05.549Z,11.6
2023-03-19T18:46:05.803Z,11.6
2023-03-19T19:00:05.692Z,11.4
2023-03-19T19:14:05.598Z,11.2
2023-03-19T19:28:05.664Z,11.1
2023-03-19T19:42:05.605Z,11.0
2023-03-19T19:56:05.632Z,10.8
2023-03-19T20:10:05.631Z,10.7
2023-03-19T20:24:05.655Z,10.6
2023-03-19T20:38:05.654Z,10.3
2023-03-19T20:52:05.666Z,10.4
2023-03-19T21:06:05.682Z,10.4
2023-03-19T21:20:05.707Z,10.1
2023-03-19T21:34:05.719Z,10.0
2023-03-19T21:48:05.737Z,9.6
2023-03-19T22:02:05.771Z,9.6
2023-03-19T22:16:05.760Z,9.4
2023-03-19T22:30:05.752Z,9.3
2023-03-19T22:44:05.796Z,9.3
2023-03-19T22:58:05.754Z,9.2
2023-03-19T23:12:05.796Z,9.2
2023-03-19T23:26:05.832Z,9.0
2023-03-19T23:40:05.811Z,9.1
2023-03-19T23:54:05.828Z,9.1
